Time;durP1;ratioP1;P1;durP2;ratioP2;P2;SDS_P1;SDS_P2;PMS_P1;PMS_P2;Temp;Humidity;BMP_temperature;BMP_pressure;BME280_temperature;BME280_humidity;BME280_pressure;Samples;Min_cycle;Max_cycle;Signal;HPM_P1;HPM_P2
2024/03/16 00:00:53;;;;;;;14.13;3.30;;;11.30;99.90;;;;;;4932063;28;20248;-64
2024/03/16 00:03:22;;;;;;;19.40;3.33;;;11.30;99.90;;;;;;4944490;28;20227;-65
2024/03/16 00:05:50;;;;;;;11.93;3.60;;;11.30;99.90;;;;;;4933223;28;20559;-65
2024/03/16 00:08:19;;;;;;;17.43;3.90;;;11.30;99.90;;;;;;4934874;28;20293;-66
2024/03/16 00:10:47;;;;;;;15.70;3.30;;;11.30;99.90;;;;;;4930012;29;20757;-65
2024/03/16 00:13:16;;;;;;;10.50;3.23;;;11.30;99.90;;;;;;4932533;29;20227;-65
2024/03/16 00:15:49;;;;;;;15.00;3.87;;;11.20;99.90;;;;;;4925528;28;20251;-65
2024/03/16 00:18:18;;;;;;;15.23;3.50;;;11.20;99.90;;;;;;4941560;28;20738;-65
2024/03/16 00:20:46;;;;;;;13.07;3.73;;;11.10;99.90;;;;;;4921545;28;20191;-65
2024/03/16 00:23:14;;;;;;;14.27;3.27;;;11.10;99.90;;;;;;4950746;28;20212;-65
2024/03/16 00:25:43;;;;;;;16.40;3.47;;;11.10;99.90;;;;;;4931205;28;20224;-65
2024/03/16 00:28:11;;;;;;;13.93;3.37;;;11.10;99.90;;;;;;4928929;29;20254;-65
2024/03/16 00:30:40;;;;;;;18.57;3.00;;;11.10;99.90;;;;;;4942249;28;20227;-65
2024/03/16 00:33:08;;;;;;;6.80;2.80;;;11.10;99.90;;;;;;4929460;29;20314;-65
2024/03/16 00:35:37;;;;;;;10.87;3.17;;;11.10;99.90;;;;;;4932653;28;20259;-64
2024/03/16 00:38:05;;;;;;;8.70;3.17;;;11.10;99.90;;;;;;4928833;29;20600;-64
2024/03/16 00:40:33;;;;;;;8.90;3.20;;;11.10;99.90;;;;;;4943945;28;20709;-65
2024/03/16 00:43:02;;;;;;;9.53;2.67;;;11.10;99.90;;;;;;4945662;28;20240;-65
2024/03/16 00:45:31;;;;;;;8.53;3.17;;;11.10;99.90;;;;;;4939199;28;20227;-65
2024/03/16 00:48:00;;;;;;;11.60;3.07;;;11.10;99.90;;;;;;4929865;28;20234;-66
2024/03/16 00:50:28;;;;;;;10.50;2.93;;;11.10;99.90;;;;;;4932734;28;20679;-64
2024/03/16 00:52:57;;;;;;;9.77;3.13;;;11.10;99.90;;;;;;4932574;28;20200;-65
2024/03/16 00:55:25;;;;;;;10.73;3.50;;;11.10;99.90;;;;;;4949115;28;20227;-65
2024/03/16 00:57:53;;;;;;;11.10;3.40;;;11.10;99.90;;;;;;4947290;28;20235;-65
2024/03/16 01:00:22;;;;;;;13.10;3.40;;;11.10;99.90;;;;;;4943105;28;20247;-65
2024/03/16 01:02:50;;;;;;;6.57;3.33;;;11.10;99.90;;;;;;4931650;28;20287;-65
2024/03/16 01:05:19;;;;;;;10.87;3.40;;;11.10;99.90;;;;;;4942929;28;20200;-65
2024/03/16 01:07:47;;;;;;;11.00;4.10;;;11.10;99.90;;;;;;4937512;28;20249;-65
2024/03/16 01:10:16;;;;;;;8.97;3.67;;;11.00;99.90;;;;;;4929028;28;20224;-65
2024/03/16 01:12:44;;;;;;;8.67;3.80;;;11.00;99.90;;;;;;4929955;29;20228;-65
2024/03/16 01:15:13;;;;;;;9.97;4.30;;;11.00;99.90;;;;;;4946158;28;20255;-66
2024/03/16 01:17:41;;;;;;;14.27;4.90;;;10.90;99.90;;;;;;4929631;28;20223;-66
2024/03/16 01:20:10;;;;;;;9.30;4.47;;;10.90;99.90;;;;;;4924880;29;20223;-65
2024/03/16 01:22:39;;;;;;;12.60;4.70;;;10.90;99.90;;;;;;4938821;28;20712;-66
2024/03/16 01:25:08;;;;;;;14.30;4.80;;;10.80;99.90;;;;;;4937273;28;20221;-65
2024/03/16 01:27:37;;;;;;;11.27;4.23;;;10.80;99.90;;;;;;4923929;28;21255;-65
2024/03/16 01:30:06;;;;;;;12.90;5.00;;;10.80;99.90;;;;;;4946170;28;20231;-66
2024/03/16 01:32:34;;;;;;;14.93;4.97;;;10.80;99.90;;;;;;4928250;28;20196;-65
2024/03/16 01:35:03;;;;;;;11.80;4.90;;;10.70;99.90;;;;;;4949223;28;20766;-65
2024/03/16 01:37:31;;;;;;;11.87;5.23;;;10.70;99.90;;;;;;4927648;28;20335;-65
2024/03/16 01:40:00;;;;;;;11.83;5.27;;;10.70;99.90;;;;;;4933720;29;20232;-65
2024/03/16 01:42:28;;;;;;;14.40;5.47;;;10.70;99.90;;;;;;4928222;29;20306;-66
2024/03/16 01:45:04;;;;;;;11.60;5.17;;;10.70;99.90;;;;;;4943106;28;20227;-65
2024/03/16 01:47:32;;;;;;;12.77;5.33;;;10.60;99.90;;;;;;4927943;28;20256;-65
2024/03/16 01:50:01;;;;;;;14.70;5.67;;;10.60;99.90;;;;;;4930253;29;20220;-65
2024/03/16 01:52:29;;;;;;;13.67;6.10;;;10.60;99.90;;;;;;4934659;29;20228;-65
2024/03/16 01:54:58;;;;;;;15.40;6.17;;;10.60;99.90;;;;;;4952792;28;20224;-65
2024/03/16 01:57:26;;;;;;;11.60;6.33;;;10.60;99.90;;;;;;4950332;28;20737;-65
2024/03/16 01:59:54;;;;;;;18.37;7.00;;;10.60;99.90;;;;;;4950441;28;20228;-65
2024/03/16 02:02:33;;;;;;;15.20;7.13;;;10.60;99.90;;;;;;4940410;29;20286;-65
2024/03/16 02:05:03;;;;;;;18.13;6.83;;;10.60;99.90;;;;;;4936915;28;20223;-65
2024/03/16 02:07:32;;;;;;;19.80;8.03;;;10.60;99.90;;;;;;4952328;28;20220;-65
2024/03/16 02:10:00;;;;;;;14.03;7.33;;;10.60;99.90;;;;;;4935184;29;20713;-65
2024/03/16 02:12:29;;;;;;;21.50;8.03;;;10.60;99.90;;;;;;4945222;28;20247;-65
2024/03/16 02:14:56;;;;;;;14.43;7.67;;;10.60;99.90;;;;;;4948508;28;20303;-65
2024/03/16 02:17:25;;;;;;;17.80;7.87;;;10.60;99.90;;;;;;4952916;28;20216;-65
2024/03/16 02:19:53;;;;;;;20.20;9.10;;;10.50;99.90;;;;;;4929533;28;20239;-65
2024/03/16 02:22:23;;;;;;;20.50;8.70;;;10.60;99.90;;;;;;4932031;29;20264;-65
2024/03/16 02:24:52;;;;;;;17.80;9.33;;;10.60;99.90;;;;;;4928078;29;20229;-65
2024/03/16 02:27:20;;;;;;;21.00;9.53;;;10.50;99.90;;;;;;4932641;28;20223;-65
2024/03/16 02:29:49;;;;;;;25.80;10.17;;;10.60;99.90;;;;;;4949047;28;20797;-65
2024/03/16 02:32:18;;;;;;;21.47;10.47;;;10.50;99.90;;;;;;4935498;28;20211;-65
2024/03/16 02:34:47;;;;;;;21.07;11.37;;;10.50;99.90;;;;;;4925039;28;20232;-65
2024/03/16 02:37:15;;;;;;;27.33;11.27;;;10.50;99.90;;;;;;4942237;28;20235;-65
2024/03/16 02:39:44;;;;;;;22.63;10.97;;;10.50;99.90;;;;;;4937063;29;20232;-65
2024/03/16 02:42:13;;;;;;;38.53;18.30;;;10.50;99.90;;;;;;4950333;28;20227;-65
2024/03/16 02:44:41;;;;;;;36.53;18.57;;;10.40;99.90;;;;;;4935857;28;20235;-65
2024/03/16 02:47:10;;;;;;;38.83;19.47;;;10.30;99.90;;;;;;4936513;28;20555;-65
2024/03/16 02:49:40;;;;;;;35.13;18.93;;;10.10;99.90;;;;;;4931592;28;20676;-65
2024/03/16 02:52:10;;;;;;;27.77;16.50;;;10.00;99.90;;;;;;4934151;29;20216;-65
2024/03/16 02:54:39;;;;;;;18.47;10.37;;;9.90;99.90;;;;;;4943896;28;20256;-65
2024/03/16 02:57:07;;;;;;;15.07;8.63;;;9.70;99.90;;;;;;4930190;29;20336;-65
2024/03/16 02:59:37;;;;;;;13.07;7.43;;;9.60;99.90;;;;;;4927666;28;20217;-65
2024/03/16 03:02:06;;;;;;;9.83;6.47;;;9.50;99.90;;;;;;4934351;29;20210;-65
2024/03/16 03:04:35;;;;;;;13.00;7.57;;;9.40;99.90;;;;;;4945556;28;20229;-65
2024/03/16 03:07:04;;;;;;;9.97;6.90;;;9.40;99.90;;;;;;4945756;28;20219;-65
2024/03/16 03:09:33;;;;;;;10.70;6.53;;;9.30;99.90;;;;;;4948409;28;20256;-65
2024/03/16 03:12:02;;;;;;;14.47;6.73;;;9.30;99.90;;;;;;4947883;28;20224;-65
2024/03/16 03:14:33;;;;;;;10.97;6.53;;;9.20;99.90;;;;;;4936179;28;20648;-65
2024/03/16 03:17:01;;;;;;;12.23;6.87;;;9.20;99.90;;;;;;4949400;28;20205;-65
2024/03/16 03:19:30;;;;;;;11.10;7.07;;;9.10;99.90;;;;;;4915853;29;20239;-65
2024/03/16 03:21:59;;;;;;;10.73;7.03;;;9.10;99.90;;;;;;4933799;28;20235;-66
2024/03/16 03:24:27;;;;;;;11.53;6.50;;;9.00;99.90;;;;;;4927796;29;20251;-65
2024/03/16 03:26:56;;;;;;;14.43;7.93;;;9.00;99.90;;;;;;4946028;28;20726;-64
2024/03/16 03:29:25;;;;;;;13.27;7.37;;;8.90;99.90;;;;;;4950217;28;20200;-64
2024/03/16 03:31:56;;;;;;;11.37;6.80;;;8.90;99.90;;;;;;4953850;28;20310;-65
2024/03/16 03:34:25;;;;;;;13.20;7.40;;;8.90;99.90;;;;;;4928128;29;20224;-65
2024/03/16 03:36:54;;;;;;;9.57;6.97;;;8.90;99.90;;;;;;4950290;28;20675;-64
2024/03/16 03:39:24;;;;;;;10.70;7.33;;;8.90;99.90;;;;;;4948414;28;20242;-64
2024/03/16 03:41:54;;;;;;;13.57;7.13;;;8.90;99.90;;;;;;4948538;28;20884;-65
2024/03/16 03:44:24;;;;;;;10.67;7.53;;;8.80;99.90;;;;;;4931195;29;20740;-65
2024/03/16 03:46:54;;;;;;;12.67;7.37;;;8.80;99.90;;;;;;4932365;28;20711;-64
2024/03/16 03:49:32;;;;;;;11.43;6.63;;;8.80;99.90;;;;;;4913520;29;20242;-64
2024/03/16 03:52:02;;;;;;;8.27;6.80;;;8.80;99.90;;;;;;4935699;28;20236;-64
2024/03/16 03:54:34;;;;;;;16.87;6.60;;;8.70;99.90;;;;;;4951622;28;20227;-65
2024/03/16 03:57:03;;;;;;;13.10;6.67;;;8.70;99.90;;;;;;4936265;29;20223;-65
2024/03/16 03:59:32;;;;;;;12.27;7.17;;;8.70;99.90;;;;;;4948667;28;20216;-64
2024/03/16 04:02:04;;;;;;;12.23;7.53;;;8.70;99.90;;;;;;4952515;28;20200;-65
2024/03/16 04:04:33;;;;;;;12.17;7.30;;;8.70;99.90;;;;;;4948999;28;20227;-65
2024/03/16 04:07:01;;;;;;;18.63;8.43;;;8.70;99.90;;;;;;4948463;28;20230;-65
2024/03/16 04:09:29;;;;;;;12.77;7.77;;;8.70;99.90;;;;;;4931875;28;20231;-65
2024/03/16 04:11:58;;;;;;;15.73;7.93;;;8.70;99.90;;;;;;4950524;28;20728;-65
2024/03/16 04:14:26;;;;;;;15.13;7.63;;;8.70;99.90;;;;;;4933972;28;20188;-65
2024/03/16 04:16:55;;;;;;;11.80;7.20;;;8.70;99.90;;;;;;4935779;28;20322;-65
2024/03/16 04:19:23;;;;;;;21.27;7.90;;;8.70;99.90;;;;;;4930344;28;20718;-65
2024/03/16 04:21:51;;;;;;;13.40;7.37;;;8.70;99.90;;;;;;4930585;28;20223;-65
2024/03/16 04:24:20;;;;;;;13.30;6.70;;;8.70;99.90;;;;;;4945748;28;20224;-65
2024/03/16 04:26:49;;;;;;;11.20;7.23;;;8.70;99.90;;;;;;4936229;28;20227;-65
2024/03/16 04:29:17;;;;;;;14.30;7.07;;;8.70;99.90;;;;;;4936731;28;20196;-65
2024/03/16 04:31:45;;;;;;;16.43;7.40;;;8.70;99.90;;;;;;4933504;29;20229;-65
2024/03/16 04:34:14;;;;;;;10.63;6.90;;;8.60;99.90;;;;;;4948675;28;20247;-65
2024/03/16 04:36:42;;;;;;;14.83;7.10;;;8.60;99.90;;;;;;4949931;28;20315;-65
2024/03/16 04:39:11;;;;;;;12.47;6.67;;;8.60;99.90;;;;;;4947150;28;20228;-65
2024/03/16 04:41:39;;;;;;;13.50;6.63;;;8.60;99.90;;;;;;4933797;28;20196;-65
2024/03/16 04:44:08;;;;;;;9.77;6.37;;;8.50;99.90;;;;;;4951555;28;20212;-65
2024/03/16 04:46:36;;;;;;;7.93;4.97;;;8.50;99.90;;;;;;4933282;28;20315;-65
2024/03/16 04:49:05;;;;;;;5.33;4.27;;;8.50;99.90;;;;;;4928827;29;20316;-65
2024/03/16 04:51:34;;;;;;;7.97;4.87;;;8.40;99.90;;;;;;4947325;28;20225;-65
2024/03/16 04:54:02;;;;;;;8.97;4.20;;;8.40;99.90;;;;;;4948538;28;20222;-65
2024/03/16 04:56:31;;;;;;;6.23;4.17;;;8.30;99.90;;;;;;4943838;28;20910;-65
2024/03/16 04:59:00;;;;;;;8.23;4.43;;;8.40;99.90;;;;;;4947506;28;20667;-65
2024/03/16 05:01:28;;;;;;;6.27;3.97;;;8.30;99.90;;;;;;4909322;28;20235;-65
2024/03/16 05:03:57;;;;;;;6.40;4.60;;;8.20;99.90;;;;;;4928838;28;20248;-65
2024/03/16 05:06:25;;;;;;;7.77;4.03;;;8.30;99.90;;;;;;4945777;28;20236;-65
2024/03/16 05:08:54;;;;;;;9.33;4.43;;;8.30;99.90;;;;;;4928294;28;20211;-65
2024/03/16 05:11:22;;;;;;;7.90;3.90;;;8.30;99.90;;;;;;4930160;28;20286;-65
2024/03/16 05:13:51;;;;;;;12.77;4.27;;;8.30;99.90;;;;;;4945887;28;20316;-65
2024/03/16 05:16:19;;;;;;;5.40;3.90;;;8.30;99.90;;;;;;4943287;28;20232;-65
2024/03/16 05:18:47;;;;;;;6.40;3.80;;;8.30;99.90;;;;;;4931945;28;20219;-65
2024/03/16 05:21:16;;;;;;;5.37;3.67;;;8.30;99.90;;;;;;4930292;29;20242;-65
2024/03/16 05:23:45;;;;;;;5.27;3.67;;;8.30;99.90;;;;;;4924604;28;20664;-65
2024/03/16 05:26:14;;;;;;;7.50;3.63;;;8.30;99.90;;;;;;4929330;28;20196;-65
2024/03/16 05:28:42;;;;;;;7.80;3.50;;;8.20;99.90;;;;;;4948271;28;20228;-65
2024/03/16 05:31:11;;;;;;;6.90;3.30;;;8.20;99.90;;;;;;4947574;28;20229;-65
2024/03/16 05:33:39;;;;;;;8.77;3.60;;;8.10;99.90;;;;;;4931252;28;20314;-65
2024/03/16 05:36:09;;;;;;;8.27;3.90;;;8.10;99.90;;;;;;4927525;28;20220;-65
2024/03/16 05:38:37;;;;;;;6.00;3.33;;;8.10;99.90;;;;;;4933707;28;20285;-65
2024/03/16 05:41:06;;;;;;;3.43;3.13;;;8.00;99.90;;;;;;4916213;28;20223;-65
2024/03/16 05:43:35;;;;;;;3.87;2.93;;;8.00;99.90;;;;;;4952798;23;20334;-60
2024/03/16 05:46:03;;;;;;;6.97;2.67;;;8.00;99.90;;;;;;4935921;29;20223;-61
2024/03/16 05:48:32;;;;;;;6.30;2.77;;;7.90;99.90;;;;;;4951772;28;20265;-61
2024/03/16 05:51:04;;;;;;;13.80;2.97;;;7.90;99.90;;;;;;4948073;28;20715;-61
2024/03/16 05:53:32;;;;;;;6.30;2.23;;;7.80;99.90;;;;;;4952980;28;20207;-61
2024/03/16 05:56:02;;;;;;;10.33;2.60;;;7.70;99.90;;;;;;4953747;28;20287;-61
2024/03/16 05:58:31;;;;;;;5.77;2.37;;;7.70;99.90;;;;;;4952468;28;20234;-60
2024/03/16 06:01:01;;;;;;;7.40;2.30;;;7.70;99.90;;;;;;4936051;28;20215;-61
2024/03/16 06:03:32;;;;;;;9.03;2.23;;;7.70;99.90;;;;;;4946261;28;20226;-60
2024/03/16 06:06:00;;;;;;;7.07;2.30;;;7.70;99.90;;;;;;4949029;28;20315;-61
2024/03/16 06:08:49;;;;;;;4.10;2.07;;;7.70;99.90;;;;;;4930502;28;20251;-62
2024/03/16 06:11:17;;;;;;;5.60;2.13;;;7.70;99.90;;;;;;4950928;28;20195;-61
2024/03/16 06:13:47;;;;;;;4.60;2.10;;;7.70;99.90;;;;;;4936832;29;20208;-61
2024/03/16 06:16:21;;;;;;;9.20;2.33;;;7.70;99.90;;;;;;4947239;28;20590;-61
2024/03/16 06:18:50;;;;;;;5.43;2.17;;;7.70;99.90;;;;;;4930649;29;20223;-60
2024/03/16 06:21:39;;;;;;;8.10;2.40;;;7.70;99.90;;;;;;4949852;28;20240;-61
2024/03/16 06:24:08;;;;;;;7.00;2.20;;;7.70;99.90;;;;;;4945582;28;20247;-60
2024/03/16 06:26:39;;;;;;;4.27;2.27;;;7.70;99.90;;;;;;4948502;28;20196;-61
2024/03/16 06:29:08;;;;;;;8.77;2.30;;;7.70;99.90;;;;;;4929600;28;20380;-61
2024/03/16 06:31:38;;;;;;;3.53;2.20;;;7.70;99.90;;;;;;4946466;28;20227;-61
2024/03/16 06:34:07;;;;;;;12.07;2.70;;;7.80;99.90;;;;;;4933764;28;20881;-60
2024/03/16 06:36:36;;;;;;;3.63;2.20;;;7.90;99.90;;;;;;4932483;29;20279;-60
2024/03/16 06:39:10;;;;;;;8.97;2.60;;;8.00;99.90;;;;;;4937427;28;20290;-61
2024/03/16 06:41:40;;;;;;;7.33;1.90;;;8.30;99.90;;;;;;4958423;28;20279;-60
2024/03/16 06:44:08;;;;;;;5.20;1.80;;;8.50;99.90;;;;;;4920944;29;20225;-61
2024/03/16 06:46:37;;;;;;;5.10;1.87;;;8.70;99.90;;;;;;4911826;29;20217;-61
2024/03/16 06:49:06;;;;;;;3.70;1.50;;;8.70;99.90;;;;;;4932097;29;20304;-61
2024/03/16 06:51:36;;;;;;;4.70;1.60;;;8.70;99.90;;;;;;4909183;29;20224;-61
2024/03/16 06:54:05;;;;;;;4.27;1.73;;;8.70;99.90;;;;;;4922864;29;20315;-61
2024/03/16 06:56:34;;;;;;;3.27;1.60;;;8.70;99.90;;;;;;4941281;29;20215;-60
2024/03/16 06:59:02;;;;;;;5.77;1.83;;;8.70;99.90;;;;;;4916744;29;20197;-60
2024/03/16 07:01:31;;;;;;;8.70;2.20;;;8.70;99.90;;;;;;4914763;29;20228;-61
2024/03/16 07:04:00;;;;;;;5.17;2.00;;;8.70;99.90;;;;;;4929500;29;20231;-61
2024/03/16 07:06:29;;;;;;;5.43;2.00;;;8.70;99.90;;;;;;4914150;29;20712;-61
2024/03/16 07:09:36;;;;;;;3.43;1.70;;;8.80;99.90;;;;;;4928878;28;20229;-61
2024/03/16 07:12:05;;;;;;;7.10;1.80;;;8.90;99.90;;;;;;4934015;29;20243;-61
2024/03/16 07:14:35;;;;;;;3.50;1.90;;;9.00;99.90;;;;;;4933261;29;20196;-61
2024/03/16 07:17:03;;;;;;;4.27;1.53;;;9.00;99.90;;;;;;4918519;29;20204;-61
2024/03/16 07:19:31;;;;;;;5.53;1.87;;;9.10;99.90;;;;;;4912368;29;20217;-62
2024/03/16 07:22:00;;;;;;;3.30;1.60;;;9.10;99.90;;;;;;4930288;29;20782;-61
2024/03/16 07:24:29;;;;;;;5.57;1.80;;;9.10;99.90;;;;;;4929896;29;20713;-61
2024/03/16 07:26:58;;;;;;;8.47;2.20;;;9.10;99.90;;;;;;4924478;29;20308;-61
2024/03/16 07:29:28;;;;;;;4.10;2.23;;;9.10;99.90;;;;;;4915556;29;20544;-60
2024/03/16 07:31:56;;;;;;;5.23;2.00;;;9.00;99.90;;;;;;4912736;29;20244;-61
2024/03/16 07:34:25;;;;;;;6.57;2.20;;;9.00;99.90;;;;;;4914465;29;20239;-61
2024/03/16 07:36:53;;;;;;;3.80;1.57;;;9.00;99.90;;;;;;4913823;29;20221;-61
2024/03/16 07:39:22;;;;;;;4.47;1.60;;;9.10;99.90;;;;;;4934711;29;20571;-61
2024/03/16 07:41:51;;;;;;;6.90;2.07;;;9.10;99.90;;;;;;4935954;28;20724;-61
2024/03/16 07:44:22;;;;;;;5.50;2.30;;;9.10;99.90;;;;;;4920255;29;20283;-61
2024/03/16 07:46:50;;;;;;;3.87;1.73;;;9.00;99.90;;;;;;4920455;29;20228;-61
2024/03/16 07:49:20;;;;;;;7.07;2.00;;;9.00;99.90;;;;;;4922337;29;20223;-61
2024/03/16 07:51:48;;;;;;;5.63;1.70;;;9.00;99.90;;;;;;4930191;29;20221;-61
2024/03/16 07:54:17;;;;;;;6.43;1.80;;;9.10;99.90;;;;;;4929744;29;20227;-60
2024/03/16 07:56:45;;;;;;;4.67;2.70;;;9.20;99.90;;;;;;4924837;29;20285;-61
2024/03/16 07:59:19;;;;;;;4.10;1.63;;;9.20;99.90;;;;;;4927189;29;20203;-61
2024/03/16 08:01:48;;;;;;;2.90;1.57;;;9.30;99.90;;;;;;4918494;29;20310;-60
2024/03/16 08:04:16;;;;;;;7.70;1.47;;;9.40;99.90;;;;;;4916307;29;20221;-61
2024/03/16 08:06:44;;;;;;;4.73;1.70;;;9.90;99.90;;;;;;4918452;29;20233;-61
2024/03/16 08:09:13;;;;;;;8.90;1.77;;;11.10;99.90;;;;;;4930236;28;20260;-62
2024/03/16 08:11:42;;;;;;;4.20;1.60;;;11.70;99.90;;;;;;4917152;29;20256;-61
2024/03/16 08:14:11;;;;;;;2.57;1.30;;;12.40;99.90;;;;;;4934315;29;20545;-61
2024/03/16 08:16:40;;;;;;;2.20;1.20;;;12.70;97.90;;;;;;4910956;29;20244;-62
2024/03/16 08:19:09;;;;;;;1.40;1.33;;;12.70;89.80;;;;;;4910930;29;20319;-62
2024/03/16 08:21:38;;;;;;;4.30;1.20;;;13.20;91.60;;;;;;4911542;29;20914;-61
2024/03/16 08:24:07;;;;;;;3.30;1.20;;;13.30;28.20;;;;;;4929185;28;20236;-62
2024/03/16 08:26:35;;;;;;;2.63;1.23;;;13.10;1.00;;;;;;4907217;29;20233;-61
2024/03/16 08:29:03;;;;;;;1.60;1.00;;;12.70;1.00;;;;;;4930602;29;20205;-61
2024/03/16 08:31:33;;;;;;;2.83;1.00;;;12.80;1.00;;;;;;4915722;29;20882;-61
2024/03/16 08:34:01;;;;;;;2.03;1.20;;;13.60;1.00;;;;;;4908764;29;20303;-62
2024/03/16 08:36:30;;;;;;;0.97;0.97;;;14.20;1.00;;;;;;4910644;29;20832;-61
2024/03/16 08:39:00;;;;;;;1.53;0.87;;;14.10;1.00;;;;;;4925864;29;20221;-62
2024/03/16 08:41:28;;;;;;;3.20;1.00;;;13.80;1.00;;;;;;4918621;28;20244;-61
2024/03/16 08:43:56;;;;;;;1.07;0.97;;;13.50;1.00;;;;;;4910985;29;20240;-62
2024/03/16 08:46:25;;;;;;;2.00;1.00;;;13.60;1.00;;;;;;4916176;29;20223;-62
2024/03/16 08:48:55;;;;;;;2.50;1.20;;;13.50;1.00;;;;;;4914239;29;20220;-62
2024/03/16 08:51:24;;;;;;;5.43;1.60;;;13.30;1.00;;;;;;4910903;29;20720;-61
2024/03/16 08:53:53;;;;;;;2.47;1.30;;;13.10;1.00;;;;;;4928963;29;20229;-61
2024/03/16 08:56:24;;;;;;;1.40;1.13;;;13.10;1.00;;;;;;4929578;29;20193;-61
2024/03/16 08:58:52;;;;;;;3.57;2.07;;;13.00;1.00;;;;;;4912423;29;20251;-61
2024/03/16 09:01:21;;;;;;;3.77;2.13;;;12.70;1.00;;;;;;4928116;29;20797;-61
2024/03/16 09:03:49;;;;;;;5.60;1.87;;;12.40;1.00;;;;;;4927502;29;20221;-61
2024/03/16 09:06:18;;;;;;;6.90;1.60;;;12.50;1.00;;;;;;4925091;29;20232;-61
2024/03/16 09:08:46;;;;;;;1.20;1.10;;;12.70;1.00;;;;;;4913691;29;20206;-62
2024/03/16 09:11:15;;;;;;;1.27;1.17;;;12.80;1.00;;;;;;4916592;29;20181;-61
2024/03/16 09:13:43;;;;;;;1.50;1.00;;;12.90;1.00;;;;;;4919306;29;20310;-61
2024/03/16 09:16:12;;;;;;;3.33;1.20;;;12.80;1.00;;;;;;4908912;29;21123;-61
2024/03/16 09:18:41;;;;;;;1.20;1.10;;;12.80;1.00;;;;;;4910372;29;20299;-61
2024/03/16 09:21:09;;;;;;;3.23;1.10;;;12.70;1.00;;;;;;4931532;29;20228;-61
2024/03/16 09:23:37;;;;;;;1.77;0.80;;;13.00;1.00;;;;;;4915293;29;20286;-61
2024/03/16 09:26:07;;;;;;;2.73;0.93;;;13.80;1.00;;;;;;4923551;29;20225;-61
2024/03/16 09:28:35;;;;;;;2.43;0.80;;;14.30;23.40;;;;;;4927120;29;21009;-61
2024/03/16 09:31:05;;;;;;;3.30;1.00;;;14.10;1.00;;;;;;4926365;29;20580;-61
2024/03/16 09:33:34;;;;;;;1.77;1.43;;;13.80;99.90;;;;;;4916000;29;20256;-61
2024/03/16 09:36:02;;;;;;;2.53;0.97;;;13.30;1.00;;;;;;4919177;29;20251;-61
2024/03/16 09:38:32;;;;;;;0.93;0.83;;;12.80;1.00;;;;;;4921437;29;20797;-61
2024/03/16 09:41:00;;;;;;;0.90;0.87;;;12.40;1.00;;;;;;4915247;29;20200;-61
2024/03/16 09:43:33;;;;;;;1.03;1.03;;;12.00;1.00;;;;;;4917788;29;20288;-61
2024/03/16 09:46:01;;;;;;;2.90;1.00;;;11.80;1.00;;;;;;4925402;29;20308;-61
2024/03/16 09:48:28;;;;;;;1.20;0.80;;;11.70;1.00;;;;;;4917270;29;20232;-61
2024/03/16 09:50:56;;;;;;;2.73;1.33;;;11.70;1.00;;;;;;4897556;29;20601;-61
2024/03/16 09:53:28;;;;;;;4.60;1.40;;;11.80;1.00;;;;;;4900837;29;20217;-60
2024/03/16 09:55:57;;;;;;;2.10;1.10;;;11.90;1.00;;;;;;4906055;29;20249;-60
2024/03/16 09:58:24;;;;;;;2.33;1.20;;;11.90;1.00;;;;;;4899815;29;20222;-61
2024/03/16 10:00:53;;;;;;;1.73;1.43;;;11.90;1.00;;;;;;4915513;29;20299;-61
2024/03/16 10:03:21;;;;;;;2.03;1.50;;;11.90;1.00;;;;;;4913101;29;20234;-61
2024/03/16 10:05:48;;;;;;;4.90;1.60;;;11.70;1.00;;;;;;4909839;29;20231;-61
2024/03/16 10:08:17;;;;;;;3.00;1.50;;;11.50;1.00;;;;;;4930231;29;20196;-61
2024/03/16 10:10:44;;;;;;;2.17;1.50;;;11.20;1.00;;;;;;4928269;29;20710;-61
2024/03/16 10:13:12;;;;;;;3.23;1.40;;;11.00;1.00;;;;;;4933292;29;20213;-61
2024/03/16 10:15:43;;;;;;;2.33;1.33;;;10.80;1.00;;;;;;4916105;29;20247;-60
2024/03/16 10:18:14;;;;;;;2.67;1.60;;;10.60;1.00;;;;;;4929628;29;20324;-61
2024/03/16 10:20:41;;;;;;;2.97;1.80;;;10.60;1.00;;;;;;4923548;28;20319;-61
2024/03/16 10:23:10;;;;;;;5.97;1.97;;;10.50;1.00;;;;;;4919055;29;20271;-61
2024/03/16 10:25:39;;;;;;;4.10;1.60;;;10.60;1.00;;;;;;4915948;29;20225;-61
2024/03/16 10:28:12;;;;;;;4.03;1.50;;;10.60;1.00;;;;;;4901539;29;20323;-61
2024/03/16 10:30:41;;;;;;;3.17;1.77;;;10.70;1.00;;;;;;4905525;29;20318;-61
2024/03/16 10:33:09;;;;;;;3.40;2.10;;;10.70;1.00;;;;;;4917796;29;20308;-60
2024/03/16 10:35:39;;;;;;;2.90;1.80;;;10.70;1.00;;;;;;4916933;29;20208;-61
2024/03/16 10:38:08;;;;;;;7.17;2.00;;;10.80;1.00;;;;;;4903418;29;20224;-62
2024/03/16 10:40:37;;;;;;;5.77;1.80;;;10.90;1.00;;;;;;4920200;29;20216;-60
2024/03/16 10:43:04;;;;;;;4.77;1.80;;;11.00;1.00;;;;;;4928860;29;20232;-61
2024/03/16 10:45:33;;;;;;;3.90;1.67;;;11.10;1.00;;;;;;4930666;29;20229;-61
2024/03/16 10:48:02;;;;;;;5.37;1.80;;;11.30;1.00;;;;;;4900722;29;20236;-61
2024/03/16 10:50:30;;;;;;;2.63;1.70;;;11.40;1.00;;;;;;4903992;29;20276;-61
2024/03/16 10:52:58;;;;;;;2.20;1.70;;;11.60;1.00;;;;;;4903363;29;20288;-61
2024/03/16 10:55:25;;;;;;;3.53;1.90;;;11.70;1.00;;;;;;4921082;29;20228;-61
2024/03/16 10:57:53;;;;;;;2.53;2.13;;;11.80;1.00;;;;;;4918806;29;20217;-60
2024/03/16 11:00:35;;;;;;;1.83;1.50;;;11.90;1.00;;;;;;4920989;29;20695;-61
2024/03/16 11:03:07;;;;;;;5.37;1.70;;;11.90;1.00;;;;;;4921881;28;20251;-60
2024/03/16 11:05:35;;;;;;;3.83;1.43;;;11.80;1.00;;;;;;4900423;29;20220;-60
2024/03/16 11:08:17;;;;;;;3.40;1.90;;;11.80;1.00;;;;;;4903107;29;20197;-60
2024/03/16 11:10:48;;;;;;;3.00;1.67;;;11.70;1.00;;;;;;4933100;29;20224;-60
2024/03/16 11:13:16;;;;;;;3.47;1.50;;;11.60;1.00;;;;;;4899110;29;20364;-60
2024/03/16 11:15:44;;;;;;;2.67;1.40;;;11.60;1.00;;;;;;4903918;29;20222;-60
2024/03/16 11:18:39;;;;;;;3.63;1.40;;;11.50;1.00;;;;;;4928806;29;20307;-60
2024/03/16 11:21:08;;;;;;;1.90;1.30;;;11.40;1.00;;;;;;4905656;29;20683;-60
2024/03/16 11:23:36;;;;;;;3.10;1.40;;;11.40;1.00;;;;;;4922289;29;20216;-61
2024/03/16 11:26:38;;;;;;;4.53;1.33;;;11.50;1.00;;;;;;4912510;29;20189;-60
2024/03/16 11:29:09;;;;;;;3.00;1.40;;;11.40;1.00;;;;;;4914783;29;20224;-60
2024/03/16 11:31:39;;;;;;;2.33;1.47;;;11.50;1.00;;;;;;4901558;29;20216;-61
2024/03/16 11:34:08;;;;;;;2.00;1.40;;;11.50;1.00;;;;;;4920472;29;20693;-60
2024/03/16 11:36:38;;;;;;;1.60;1.50;;;11.60;1.00;;;;;;4914720;29;20311;-60
2024/03/16 11:39:10;;;;;;;1.23;1.07;;;11.60;1.00;;;;;;4914145;29;20221;-60
2024/03/16 11:41:44;;;;;;;2.00;1.37;;;11.70;1.00;;;;;;4912909;29;20477;-60
2024/03/16 11:44:14;;;;;;;3.07;1.50;;;11.80;1.00;;;;;;4908854;29;20415;-60
2024/03/16 11:46:45;;;;;;;1.93;1.53;;;11.90;1.00;;;;;;4901447;29;20216;-61
2024/03/16 11:49:15;;;;;;;2.00;1.60;;;12.00;1.00;;;;;;4911324;29;20711;-61
2024/03/16 11:51:47;;;;;;;1.50;1.40;;;12.10;1.00;;;;;;4926058;29;20221;-61
2024/03/16 11:54:14;;;;;;;4.63;1.73;;;12.20;1.00;;;;;;4903232;29;20674;-61
2024/03/16 11:56:41;;;;;;;3.83;1.50;;;12.50;99.90;;;;;;4902939;29;20798;-61
2024/03/16 11:59:09;;;;;;;8.50;1.73;;;12.70;1.00;;;;;;4912626;29;20280;-61
2024/03/16 12:01:37;;;;;;;1.63;1.33;;;13.00;99.90;;;;;;4929524;29;20288;-61
2024/03/16 12:04:04;;;;;;;2.73;1.80;;;13.30;99.90;;;;;;4897311;29;20220;-61
2024/03/16 12:06:32;;;;;;;2.90;1.60;;;13.60;99.90;;;;;;4910454;29;20223;-62
2024/03/16 12:08:59;;;;;;;4.90;1.40;;;13.90;1.00;;;;;;4911357;29;20740;-61
2024/03/16 12:11:27;;;;;;;1.53;1.40;;;14.00;1.00;;;;;;4896234;28;20189;-64
2024/03/16 12:14:09;;;;;;;4.97;1.80;;;14.10;1.00;;;;;;4897110;29;20310;-62
2024/03/16 12:16:39;;;;;;;2.13;1.67;;;14.10;99.90;;;;;;4889198;29;20230;-62
2024/03/16 12:19:07;;;;;;;2.00;1.40;;;14.00;1.00;;;;;;4900094;29;20311;-62
2024/03/16 12:21:40;;;;;;;3.60;1.40;;;13.60;1.00;;;;;;4912539;29;20645;-61
2024/03/16 12:24:07;;;;;;;1.60;1.50;;;13.30;1.00;;;;;;4926417;29;20312;-61
2024/03/16 12:26:34;;;;;;;3.90;1.50;;;12.90;1.00;;;;;;4895961;29;20300;-62
2024/03/16 12:29:07;;;;;;;3.77;1.73;;;12.70;99.90;;;;;;4915397;29;20247;-62
2024/03/16 12:31:36;;;;;;;1.67;1.57;;;12.50;99.90;;;;;;4897585;29;20620;-61
2024/03/16 12:34:02;;;;;;;3.23;1.97;;;12.40;1.00;;;;;;4928432;29;20225;-62
2024/03/16 12:36:29;;;;;;;3.27;1.50;;;12.40;1.00;;;;;;4911109;29;20224;-61
2024/03/16 12:38:56;;;;;;;3.03;1.67;;;12.40;99.90;;;;;;4898958;29;20231;-61
2024/03/16 12:41:23;;;;;;;3.03;1.57;;;12.40;30.10;;;;;;4898678;29;20201;-62
2024/03/16 12:43:50;;;;;;;1.30;1.20;;;12.40;99.90;;;;;;4931086;29;21336;-62
2024/03/16 12:46:17;;;;;;;4.10;1.33;;;12.50;99.90;;;;;;4908478;29;20227;-61
2024/03/16 12:48:43;;;;;;;1.43;1.30;;;12.60;1.00;;;;;;4912910;29;20385;-62
2024/03/16 12:51:11;;;;;;;1.53;1.30;;;12.80;1.00;;;;;;4909612;29;20308;-61
2024/03/16 12:53:39;;;;;;;4.47;1.30;;;13.10;1.00;;;;;;4911526;28;20193;-62
2024/03/16 12:56:07;;;;;;;1.10;1.10;;;13.30;1.00;;;;;;4915735;29;20209;-61
2024/03/16 12:58:35;;;;;;;1.87;1.13;;;13.60;99.90;;;;;;4912600;29;20224;-61
2024/03/16 13:01:01;;;;;;;2.00;1.30;;;13.90;76.90;;;;;;4925609;29;20223;-63